createdAt,value
2023-03-02T00:00:36.021Z,65.20
2023-03-02T00:03:21.534Z,77.90
2023-03-02T00:05:55.944Z,71.40
2023-03-02T00:08:30.763Z,72.10
2023-03-02T00:11:05.201Z,74.00
2023-03-02T00:13:40.412Z,70.60
2023-03-02T00:16:14.122Z,77.10
2023-03-02T00:18:47.512Z,72.40
2023-03-02T00:21:21.131Z,73.60
2023-03-02T00:23:54.746Z,63.40
2023-03-02T00:26:28.324Z,71.00
2023-03-02T00:29:01.908Z,69.70
2023-03-02T00:31:36.025Z,71.60
2023-03-02T00:34:10.310Z,65.20
2023-03-02T00:36:44.274Z,71.20
2023-03-02T00:39:20.776Z,73.10
2023-03-02T00:41:54.877Z,72.60
2023-03-02T00:44:28.259Z,63.60
2023-03-02T00:47:02.106Z,69.00
2023-03-02T00:49:37.815Z,70.90
2023-03-02T00:52:11.392Z,73.60
2023-03-02T00:54:45.584Z,69.90
2023-03-02T00:57:19.549Z,74.40
2023-03-02T00:59:53.423Z,74.50
2023-03-02T01:02:31.936Z,79.60
2023-03-02T01:05:06.183Z,77.00
2023-03-02T01:07:40.262Z,83.70
2023-03-02T01:10:15.926Z,76.80
2023-03-02T01:12:49.660Z,71.90
2023-03-02T01:15:23.431Z,69.00
2023-03-02T01:17:56.753Z,71.60
2023-03-02T01:20:30.658Z,69.50
2023-03-02T01:23:04.269Z,71.00
2023-03-02T01:25:39.346Z,70.50
2023-03-02T01:28:12.951Z,69.00
2023-03-02T01:30:46.650Z,73.70
2023-03-02T01:33:20.490Z,76.00
2023-03-02T01:35:54.500Z,69.90
2023-03-02T01:38:28.388Z,63.70
2023-03-02T01:41:02.185Z,71.50
2023-03-02T01:43:35.858Z,68.20
2023-03-02T01:46:15.120Z,68.70
2023-03-02T01:48:57.103Z,62.90
2023-03-02T01:51:47.676Z,65.30
2023-03-02T01:54:24.718Z,72.30
2023-03-02T01:57:05.033Z,73.80
2023-03-02T01:59:42.622Z,70.20
2023-03-02T02:02:16.978Z,73.40
2023-03-02T02:04:52.127Z,73.00
2023-03-02T02:07:26.304Z,71.30
2023-03-02T02:10:00.877Z,76.80
2023-03-02T02:12:34.937Z,67.40
2023-03-02T02:15:10.589Z,67.90
2023-03-02T02:17:44.270Z,56.70
2023-03-02T02:20:28.715Z,55.00
2023-03-02T02:23:12.594Z,53.30
2023-03-02T02:25:55.665Z,46.60
2023-03-02T02:28:33.473Z,44.10
2023-03-02T02:31:16.183Z,42.90
2023-03-02T02:33:54.229Z,45.60
2023-03-02T02:36:33.886Z,45.10
2023-03-02T02:39:17.411Z,42.00
2023-03-02T02:41:53.622Z,43.60
2023-03-02T02:44:27.056Z,40.20
2023-03-02T02:47:00.478Z,48.60
2023-03-02T02:49:36.687Z,42.20
2023-03-02T02:52:15.799Z,42.70
2023-03-02T02:54:53.055Z,42.50
2023-03-02T02:57:31.098Z,42.40
2023-03-02T03:00:07.009Z,40.80
2023-03-02T03:02:47.362Z,43.60
2023-03-02T03:05:21.164Z,41.50
2023-03-02T03:07:55.059Z,41.50
2023-03-02T03:10:36.498Z,38.80
2023-03-02T03:13:12.902Z,39.60
2023-03-02T03:15:46.835Z,40.30
2023-03-02T03:18:26.034Z,36.00
2023-03-02T03:20:59.678Z,42.90
2023-03-02T03:23:39.192Z,38.20
2023-03-02T03:26:13.299Z,37.40
2023-03-02T03:28:47.117Z,38.90
2023-03-02T03:31:20.892Z,34.60
2023-03-02T03:33:54.483Z,37.00
2023-03-02T03:36:28.604Z,39.30
2023-03-02T03:39:02.670Z,36.40
2023-03-02T03:41:36.825Z,36.60
2023-03-02T03:44:10.885Z,38.50
2023-03-02T03:46:45.035Z,38.60
2023-03-02T03:49:19.275Z,33.10
2023-03-02T03:51:53.160Z,34.50
2023-03-02T03:54:27.099Z,36.20
2023-03-02T03:57:00.714Z,36.90
2023-03-02T03:59:34.888Z,38.90
2023-03-02T04:02:09.969Z,36.80
2023-03-02T04:04:47.446Z,34.80
2023-03-02T04:07:24.017Z,36.70
2023-03-02T04:10:04.395Z,35.50
2023-03-02T04:12:42.787Z,38.80
2023-03-02T04:15:19.716Z,35.20
2023-03-02T04:17:54.883Z,34.00
2023-03-02T04:20:31.405Z,32.60
2023-03-02T04:23:05.459Z,32.20
2023-03-02T04:25:39.314Z,36.70
2023-03-02T04:28:20.818Z,34.10
2023-03-02T04:30:55.228Z,36.10
2023-03-02T04:33:29.802Z,34.40
2023-03-02T04:36:03.875Z,37.90
2023-03-02T04:38:37.371Z,34.10
2023-03-02T04:41:11.275Z,33.20
2023-03-02T04:43:45.460Z,36.60
2023-03-02T04:46:24.412Z,33.70
2023-03-02T04:48:58.263Z,36.10
2023-03-02T04:51:34.665Z,35.00
2023-03-02T04:54:12.726Z,35.20
2023-03-02T04:56:48.938Z,40.10
2023-03-02T04:59:26.310Z,33.70
2023-03-02T05:02:02.122Z,33.40
2023-03-02T05:04:36.367Z,34.30
2023-03-02T05:07:10.263Z,32.40
2023-03-02T05:09:44.195Z,36.20
2023-03-02T05:12:19.550Z,36.10
2023-03-02T05:14:53.629Z,32.90
2023-03-02T05:17:27.601Z,33.00
2023-03-02T05:20:01.375Z,33.90
2023-03-02T05:22:35.180Z,31.70
2023-03-02T05:25:09.902Z,30.20
2023-03-02T05:27:43.762Z,33.40
2023-03-02T05:30:18.748Z,31.60
2023-03-02T05:32:53.442Z,36.30
2023-03-02T05:35:27.894Z,33.50
2023-03-02T05:38:01.519Z,30.30
2023-03-02T05:40:35.491Z,34.10
2023-03-02T05:43:09.849Z,32.50
2023-03-02T05:45:43.392Z,32.20
2023-03-02T05:48:17.840Z,32.30
2023-03-02T05:50:51.671Z,31.80
2023-03-02T05:53:25.293Z,34.90
2023-03-02T05:55:59.194Z,34.90
2023-03-02T05:58:32.922Z,34.00
2023-03-02T06:01:15.432Z,33.40
2023-03-02T06:03:49.943Z,33.10
2023-03-02T06:06:23.660Z,35.00
2023-03-02T06:08:57.625Z,30.60
2023-03-02T06:11:31.475Z,33.90
2023-03-02T06:14:04.971Z,31.40
2023-03-02T06:16:38.869Z,32.70
2023-03-02T06:19:12.308Z,35.10
2023-03-02T06:21:46.030Z,39.30
2023-03-02T06:24:20.425Z,42.90
2023-03-02T06:26:56.231Z,42.00
2023-03-02T06:29:30.232Z,68.30
2023-03-02T06:32:03.862Z,88.50
2023-03-02T06:34:37.572Z,75.70
2023-03-02T06:37:11.516Z,55.60
2023-03-02T06:39:45.294Z,48.90
2023-03-02T06:42:18.872Z,48.50
2023-03-02T06:44:55.110Z,65.90
2023-03-02T06:47:28.712Z,54.80
2023-03-02T06:50:02.724Z,50.40
2023-03-02T06:52:36.813Z,44.90
2023-03-02T06:55:12.182Z,45.30
2023-03-02T06:57:45.745Z,45.30
2023-03-02T07:00:26.151Z,45.80
2023-03-02T07:03:00.535Z,47.40
2023-03-02T07:05:36.261Z,50.30
2023-03-02T07:08:10.975Z,44.30
2023-03-02T07:10:44.410Z,44.40
2023-03-02T07:13:18.513Z,45.00
2023-03-02T07:15:52.330Z,42.70
2023-03-02T07:18:26.243Z,45.80
2023-03-02T07:20:59.886Z,47.20
2023-03-02T07:23:34.401Z,48.60
2023-03-02T07:26:09.446Z,40.90
2023-03-02T07:28:44.797Z,41.90
2023-03-02T07:31:18.813Z,43.00
2023-03-02T07:33:52.870Z,36.80
2023-03-02T07:36:27.557Z,38.70
2023-03-02T07:39:01.410Z,36.80
2023-03-02T07:41:35.878Z,33.90
2023-03-02T07:44:09.800Z,30.00
2023-03-02T07:46:43.911Z,29.60
2023-03-02T07:49:17.754Z,28.30
2023-03-02T07:51:51.214Z,27.50
2023-03-02T07:54:27.035Z,32.70
2023-03-02T07:57:01.844Z,26.50
2023-03-02T07:59:35.646Z,29.90
2023-03-02T08:02:11.308Z,28.60
2023-03-02T08:04:45.552Z,29.20
2023-03-02T08:07:19.196Z,31.30
2023-03-02T08:09:53.068Z,26.10
2023-03-02T08:12:26.493Z,26.90
2023-03-02T08:15:01.327Z,25.40
2023-03-02T08:17:36.167Z,24.40
2023-03-02T08:20:12.222Z,25.90
2023-03-02T08:22:46.358Z,26.50
2023-03-02T08:25:20.174Z,31.60
2023-03-02T08:27:53.563Z,27.10
2023-03-02T08:30:27.456Z,25.90
2023-03-02T08:33:05.343Z,26.20
2023-03-02T08:35:40.767Z,25.90
2023-03-02T08:38:14.644Z,25.10
2023-03-02T08:40:48.559Z,26.70
2023-03-02T08:43:22.814Z,23.90
2023-03-02T08:45:58.185Z,28.40
2023-03-02T08:48:32.620Z,23.40
2023-03-02T08:51:09.536Z,26.00
2023-03-02T08:53:44.753Z,27.70
2023-03-02T08:56:23.031Z,25.70
2023-03-02T08:59:00.005Z,26.70
2023-03-02T09:01:37.749Z,23.80
2023-03-02T09:04:12.741Z,23.70
2023-03-02T09:06:46.996Z,24.80
2023-03-02T09:09:20.283Z,18.20
2023-03-02T09:11:54.067Z,19.60
2023-03-02T09:14:27.703Z,16.70
2023-03-02T09:17:01.370Z,16.40
2023-03-02T09:19:44.314Z,22.40
2023-03-02T09:22:18.901Z,21.80
2023-03-02T09:24:52.516Z,20.50
2023-03-02T09:27:26.149Z,23.20
2023-03-02T09:29:59.725Z,24.80
2023-03-02T09:32:33.732Z,25.70
2023-03-02T09:35:08.611Z,24.10
2023-03-02T09:37:44.302Z,27.70
2023-03-02T09:40:23.993Z,24.50
2023-03-02T09:43:15.991Z,23.40
2023-03-02T09:46:08.482Z,18.50
2023-03-02T09:48:49.009Z,19.10
2023-03-02T09:51:34.044Z,19.70
2023-03-02T09:54:13.298Z,24.70
2023-03-02T09:56:50.140Z,23.80
2023-03-02T09:59:30.460Z,22.50
2023-03-02T10:02:25.818Z,15.70
2023-03-02T10:05:01.060Z,24.70
2023-03-02T10:07:37.306Z,17.00
2023-03-02T10:10:25.082Z,15.50
2023-03-02T10:13:17.465Z,15.50
2023-03-02T10:16:08.469Z,18.80
2023-03-02T10:18:47.511Z,14.90
2023-03-02T10:21:28.709Z,17.40
2023-03-02T10:24:07.309Z,15.20
2023-03-02T10:29:41.429Z,13.60
2023-03-02T10:32:24.026Z,12.70
2023-03-02T10:34:58.266Z,13.10
2023-03-02T10:37:32.988Z,12.80
2023-03-02T10:40:07.174Z,12.90
2023-03-02T10:42:41.992Z,14.00
2023-03-02T10:45:25.754Z,12.10
2023-03-02T10:48:10.721Z,9.50
2023-03-02T10:50:46.170Z,15.80
2023-03-02T10:53:23.478Z,11.30
2023-03-02T10:55:57.274Z,12.90
2023-03-02T10:58:35.074Z,12.00
2023-03-02T11:01:17.374Z,14.20
2023-03-02T11:04:00.953Z,20.60
2023-03-02T11:06:36.349Z,13.30
2023-03-02T11:09:16.788Z,13.90
2023-03-02T11:11:56.132Z,13.70
2023-03-02T11:14:29.414Z,14.40
2023-03-02T11:17:03.709Z,13.00
2023-03-02T11:19:41.918Z,11.90
2023-03-02T11:22:26.953Z,14.10
2023-03-02T11:25:05.602Z,13.00
2023-03-02T11:30:18.930Z,15.90
2023-03-02T11:32:57.668Z,15.60
2023-03-02T11:38:20.962Z,14.80
2023-03-02T11:41:00.757Z,13.60
2023-03-02T11:43:34.817Z,16.80
2023-03-02T11:46:22.043Z,14.00
2023-03-02T11:49:00.896Z,17.50
2023-03-02T11:51:47.139Z,16.90
2023-03-02T11:54:37.261Z,13.60
2023-03-02T11:57:22.796Z,16.10
2023-03-02T11:59:58.785Z,15.30
2023-03-02T12:02:32.379Z,17.60
2023-03-02T12:05:25.725Z,17.30
2023-03-02T12:08:03.816Z,16.10
2023-03-02T12:10:41.818Z,16.00
2023-03-02T12:13:23.338Z,19.90
2023-03-02T12:15:57.706Z,14.60
2023-03-02T12:18:46.481Z,16.70
2023-03-02T12:21:23.001Z,17.70
2023-03-02T12:24:04.329Z,15.00
2023-03-02T12:26:39.730Z,17.50
2023-03-02T12:29:27.403Z,16.10
2023-03-02T12:32:11.801Z,18.80
2023-03-02T12:34:47.798Z,17.70
2023-03-02T12:37:26.641Z,17.40
2023-03-02T12:40:33.663Z,16.00
2023-03-02T12:43:29.423Z,15.60
2023-03-02T12:46:32.051Z,18.70
2023-03-02T12:49:35.886Z,21.50
2023-03-02T12:52:24.758Z,19.40
2023-03-02T12:55:07.603Z,16.70
2023-03-02T12:57:51.493Z,23.30
2023-03-02T13:00:27.540Z,17.60
2023-03-02T13:03:02.703Z,19.80
2023-03-02T13:05:39.178Z,19.50
2023-03-02T13:08:19.344Z,17.50
2023-03-02T13:10:58.362Z,18.90
2023-03-02T13:13:40.028Z,20.60
2023-03-02T13:16:25.241Z,21.90
2023-03-02T13:19:00.608Z,19.40
2023-03-02T13:21:37.911Z,22.30
2023-03-02T13:24:36.475Z,18.80
2023-03-02T13:27:17.640Z,18.40
2023-03-02T13:29:52.481Z,22.00
2023-03-02T13:32:28.647Z,18.30
2023-03-02T13:35:05.482Z,20.50
2023-03-02T13:37:44.271Z,19.40
2023-03-02T13:40:36.206Z,20.00
2023-03-02T13:43:32.800Z,21.50
2023-03-02T13:46:07.508Z,19.30
2023-03-02T13:48:41.212Z,22.70
2023-03-02T13:51:20.672Z,20.60
2023-03-02T13:53:58.742Z,21.50
2023-03-02T13:56:34.721Z,19.90
2023-03-02T13:59:13.715Z,19.50
2023-03-02T14:04:23.709Z,17.20
2023-03-02T14:06:58.429Z,20.20
2023-03-02T14:09:32.280Z,19.10
2023-03-02T14:12:07.374Z,22.30
2023-03-02T14:14:45.251Z,20.20
2023-03-02T14:17:24.144Z,18.70
2023-03-02T14:19:58.534Z,22.20
2023-03-02T14:22:32.645Z,21.00
2023-03-02T14:25:07.216Z,19.80
2023-03-02T14:27:41.421Z,22.90
2023-03-02T14:30:23.031Z,23.20
2023-03-02T14:32:56.512Z,24.30
2023-03-02T14:35:30.041Z,21.40
2023-03-02T14:38:03.619Z,27.10
2023-03-02T14:40:37.092Z,22.00
2023-03-02T14:43:12.691Z,26.20
2023-03-02T14:45:46.914Z,25.50
2023-03-02T14:48:20.928Z,23.20
2023-03-02T14:50:55.015Z,24.10
2023-03-02T14:53:33.343Z,23.60
2023-03-02T14:56:08.360Z,21.80
2023-03-02T14:58:42.334Z,20.10
2023-03-02T15:01:16.715Z,21.00
2023-03-02T15:03:50.276Z,22.90
2023-03-02T15:06:29.619Z,21.70
2023-03-02T15:09:05.074Z,21.30
2023-03-02T15:11:38.541Z,28.70
2023-03-02T15:14:12.043Z,24.60
2023-03-02T15:16:45.785Z,28.80
2023-03-02T15:19:20.577Z,26.20
2023-03-02T15:21:53.989Z,25.10
2023-03-02T15:24:27.423Z,24.50
2023-03-02T15:27:01.536Z,24.40
2023-03-02T15:29:35.591Z,23.00
2023-03-02T15:32:10.187Z,25.30
2023-03-02T15:34:44.526Z,26.20
2023-03-02T15:37:18.558Z,23.30
2023-03-02T15:39:57.191Z,25.40
2023-03-02T15:42:31.331Z,21.70
2023-03-02T15:45:05.249Z,26.30
2023-03-02T15:47:39.455Z,24.10
2023-03-02T15:50:15.192Z,25.10
2023-03-02T15:52:48.652Z,24.50
2023-03-02T15:55:22.484Z,23.60
2023-03-02T15:57:59.243Z,22.20
2023-03-02T16:00:36.358Z,21.50
2023-03-02T16:03:10.368Z,21.00
2023-03-02T16:05:45.109Z,20.70
2023-03-02T16:08:19.300Z,20.70
2023-03-02T16:11:02.034Z,24.10
2023-03-02T16:13:37.246Z,23.70
2023-03-02T16:16:13.231Z,23.00
2023-03-02T16:18:51.701Z,24.70
2023-03-02T16:21:25.994Z,28.20
2023-03-02T16:24:04.298Z,32.50
2023-03-02T16:26:39.729Z,30.30
2023-03-02T16:29:15.736Z,29.90
2023-03-02T16:31:51.121Z,32.50
2023-03-02T16:34:25.207Z,31.70
2023-03-02T16:36:59.699Z,36.50
2023-03-02T16:39:33.573Z,32.50
2023-03-02T16:42:08.635Z,31.90
2023-03-02T16:44:45.112Z,33.30
2023-03-02T16:47:19.322Z,33.80
2023-03-02T16:49:53.209Z,32.50
2023-03-02T16:52:26.766Z,35.00
2023-03-02T16:55:01.058Z,37.60
2023-03-02T16:57:35.971Z,34.90
2023-03-02T17:00:15.086Z,37.60
2023-03-02T17:02:52.556Z,42.60
2023-03-02T17:05:28.935Z,39.70
2023-03-02T17:08:05.871Z,36.10
2023-03-02T17:10:42.366Z,37.80
2023-03-02T17:13:17.526Z,41.20
2023-03-02T17:15:52.054Z,38.00
2023-03-02T17:18:27.862Z,39.10
2023-03-02T17:21:04.732Z,40.70
2023-03-02T17:23:38.621Z,41.90
2023-03-02T17:26:13.319Z,43.00
2023-03-02T17:28:47.597Z,42.10
2023-03-02T17:31:27.261Z,44.00
2023-03-02T17:34:02.516Z,40.60
2023-03-02T17:36:37.680Z,44.70
2023-03-02T17:39:13.452Z,50.80
2023-03-02T17:41:48.073Z,46.80
2023-03-02T17:44:28.237Z,44.40
2023-03-02T17:47:08.733Z,46.10
2023-03-02T17:49:45.848Z,44.60
2023-03-02T17:52:22.520Z,46.80
2023-03-02T17:54:58.242Z,42.50
2023-03-02T17:57:35.330Z,44.90
2023-03-02T18:00:14.587Z,43.00
2023-03-02T18:02:50.007Z,45.90
2023-03-02T18:05:30.031Z,51.00
2023-03-02T18:08:08.542Z,50.60
2023-03-02T18:10:43.236Z,49.20
2023-03-02T18:13:20.984Z,46.30
2023-03-02T18:15:56.759Z,51.90
2023-03-02T18:18:34.515Z,44.50
2023-03-02T18:21:11.843Z,52.10
2023-03-02T18:23:51.944Z,50.50
2023-03-02T18:26:28.184Z,55.40
2023-03-02T18:29:05.128Z,53.40
2023-03-02T18:31:40.526Z,52.90
2023-03-02T18:34:21.008Z,57.80
2023-03-02T18:37:00.839Z,57.70
2023-03-02T18:39:39.623Z,52.50
2023-03-02T18:42:16.354Z,61.20
2023-03-02T18:44:53.835Z,52.20
2023-03-02T18:47:37.547Z,51.80
2023-03-02T18:50:16.639Z,50.70
2023-03-02T18:55:28.887Z,51.90
2023-03-02T18:58:05.077Z,57.10
2023-03-02T19:00:42.345Z,52.50
2023-03-02T19:03:19.243Z,53.40
2023-03-02T19:05:58.029Z,57.10
2023-03-02T19:08:39.026Z,61.10
2023-03-02T19:11:15.715Z,56.50
2023-03-02T19:13:53.800Z,67.60
2023-03-02T19:16:35.719Z,71.00
2023-03-02T19:19:11.829Z,62.30
2023-03-02T19:21:47.362Z,68.20
2023-03-02T19:24:23.536Z,70.20
2023-03-02T19:26:59.560Z,62.70
2023-03-02T19:29:36.919Z,69.30
2023-03-02T19:32:21.961Z,78.70
2023-03-02T19:35:03.937Z,72.00
2023-03-02T19:37:39.552Z,68.40
2023-03-02T19:40:22.960Z,70.50
2023-03-02T19:43:03.012Z,81.60
2023-03-02T19:45:40.874Z,82.80
2023-03-02T19:48:17.721Z,84.00
2023-03-02T19:50:55.834Z,85.70
2023-03-02T19:53:33.466Z,81.50
2023-03-02T19:56:13.978Z,80.20
2023-03-02T19:58:55.224Z,94.20
2023-03-02T20:01:33.608Z,98.70
2023-03-02T20:06:47.320Z,93.80
2023-03-02T20:12:03.426Z,92.80
2023-03-02T20:14:39.701Z,96.10
2023-03-02T20:17:17.825Z,106.70
2023-03-02T20:19:58.262Z,92.60
2023-03-02T20:22:35.015Z,99.60
2023-03-02T20:25:12.188Z,98.30
2023-03-02T20:27:50.141Z,106.10
2023-03-02T20:30:36.475Z,105.60
2023-03-02T20:33:18.341Z,101.00
2023-03-02T20:35:59.953Z,101.10
2023-03-02T20:38:44.548Z,111.40
2023-03-02T20:41:24.786Z,113.60
2023-03-02T20:44:04.716Z,125.80
2023-03-02T20:46:43.983Z,121.90
2023-03-02T20:49:20.953Z,112.20
2023-03-02T20:51:58.339Z,105.60
2023-03-02T20:54:38.057Z,97.90
2023-03-02T20:57:21.428Z,96.10
2023-03-02T20:59:57.518Z,94.70
2023-03-02T21:02:36.684Z,90.00
2023-03-02T21:05:15.590Z,86.40
2023-03-02T21:07:53.055Z,98.30
2023-03-02T21:10:31.320Z,100.90
2023-03-02T21:13:12.215Z,108.40
2023-03-02T21:15:46.589Z,104.60
2023-03-02T21:18:26.108Z,101.50
2023-03-02T21:21:00.216Z,101.90
2023-03-02T21:23:36.046Z,96.70
2023-03-02T21:26:13.438Z,88.60
2023-03-02T21:28:48.868Z,96.10
2023-03-02T21:31:24.232Z,92.00
2023-03-02T21:34:00.559Z,86.10
2023-03-02T21:36:36.695Z,90.00
2023-03-02T21:39:12.504Z,90.20
2023-03-02T21:41:47.604Z,84.30
2023-03-02T21:44:23.521Z,86.90
2023-03-02T21:46:57.521Z,82.80
2023-03-02T21:49:32.303Z,84.50
2023-03-02T21:52:08.557Z,83.60
2023-03-02T21:54:42.366Z,92.90
2023-03-02T21:57:15.781Z,86.20
2023-03-02T21:59:49.424Z,83.60
2023-03-02T22:02:23.259Z,83.40
2023-03-02T22:04:57.418Z,88.70
2023-03-02T22:07:31.666Z,95.80
2023-03-02T22:10:05.661Z,92.80
2023-03-02T22:12:39.260Z,94.80
2023-03-02T22:15:17.404Z,88.30
2023-03-02T22:17:52.753Z,95.90
2023-03-02T22:20:26.735Z,97.70
2023-03-02T22:23:01.850Z,90.30
2023-03-02T22:25:35.861Z,93.60
2023-03-02T22:28:18.364Z,90.80
2023-03-02T22:30:53.395Z,94.60
2023-03-02T22:33:29.132Z,92.80
2023-03-02T22:36:14.207Z,92.20
2023-03-02T22:38:48.224Z,85.60
2023-03-02T22:41:23.391Z,83.20
2023-03-02T22:43:59.087Z,82.30
2023-03-02T22:46:32.627Z,93.20
2023-03-02T22:49:18.258Z,86.90
2023-03-02T22:51:51.876Z,90.30
2023-03-02T22:54:31.388Z,81.30
2023-03-02T22:57:07.590Z,82.40
2023-03-02T22:59:41.970Z,84.50
2023-03-02T23:02:22.770Z,80.80
2023-03-02T23:04:56.214Z,79.90
2023-03-02T23:07:30.308Z,75.70
2023-03-02T23:10:04.041Z,80.90
2023-03-02T23:12:38.420Z,87.00
2023-03-02T23:15:22.524Z,85.90
2023-03-02T23:17:59.084Z,90.20
2023-03-02T23:20:35.165Z,94.00
2023-03-02T23:23:08.981Z,94.20
2023-03-02T23:25:42.682Z,83.60
2023-03-02T23:28:16.490Z,85.90
2023-03-02T23:30:50.423Z,86.40
2023-03-02T23:33:24.253Z,86.80
2023-03-02T23:35:57.927Z,85.60
2023-03-02T23:38:31.651Z,84.30
2023-03-02T23:41:05.136Z,81.10
2023-03-02T23:43:38.869Z,81.80
2023-03-02T23:46:14.561Z,83.90
2023-03-02T23:48:48.379Z,80.20
2023-03-02T23:51:22.447Z,72.40
2023-03-02T23:53:56.458Z,83.90
2023-03-02T23:56:29.928Z,83.70
2023-03-02T23:59:04.132Z,85.00
